Gatlinburg, TN

2:45 PM EST on February 14, 2016 (GMT -0500)
mynatt park | | Change Station
CLOSE
Current Station
Personal Weather Station
Location: Gatlinburg, TN
Elevation: 1552 ft
Nearby Weather Stations
Active Advisory: Winter Weather Advisory

Elev 1552 ft 35.70 °N, 83.51 °W | Updated 17 minutes ago

Overcast
Overcast
26.6 °F
Feels Like 27 °F
N
0.0
Wind Variable Wind from West

Today
High -- | Low -- °F
--% Chance of Precip.
Yesterday
High -- | Low -- °F
Precip. -- in
Pressure 30.23 in
Visibility 10.0 miles
Clouds Overcast 5000 ft
Windchill 27 °F
Dew Point 14 °F
Humidity 58%
Rainfall 0.00 in
Snow Depth Not available.
7:22 AM 6:14 PM
Waxing Crescent, 44% visible
METAR K1A5 141935Z AUTO 16005KT 10SM OVC050 00/M15 A3023 RMK AO2 T10051150
Pressure 30.23 in
Visibility 10.0 miles
Clouds Overcast 5000 ft
Windchill 27 °F
Dew Point 14 °F
Humidity 58%
Rainfall 0.00 in
Snow Depth Not available.
7:22 AM 6:14 PM
Waxing Crescent, 44% visible
METAR K1A5 141935Z AUTO 16005KT 10SM OVC050 00/M15 A3023 RMK AO2 T10051150

10-Day Weather Forecast

Almanac

Astronomy

Feb. 14, 2016 Rise Set
Actual Time
Civil Twilight
Nautical Twilight
Astronomical Twilight
Moon
Length of Visible Light
Length of Day
Tomorrow will be .
, % of the Moon is Illuminated

Today's Extremes

State Highs State Lows

Community

WunderPhotos

Upload Photos

1,892,879 photos uploaded!

WunderBlog® & News

Nearby

Air Quality

  Air Quality AQ Index Pollutant
Not available.

Snow Depth

Station Depth Elevation

Earthquake Activity

City Distance Mag. Time & Date
Minimum magnitude displayed is 2.5.

Coastal Water Temperatures

Place Temperature

Stations

Nearby Weather Stations

Station Location Temp. Windchill Dew Point Humidity Wind Precip. Elev Updated Type
                   

Watches & Warnings

Winter Weather Advisory
Issued: 12:00 PM EST Feb. 14, 2016 – National Weather Service

... Winter Weather Advisory remains in effect until 10 am EST
Monday...

* event... snow and sleet accumulations of 1 to 3 inches are
expected. In addition... a few areas may see some freezing rain
with ice accumulation of less than a tenth of an inch
possible.

* Timing... snow is expected to begin accumulating by early
afternoon today... with a mix of snow... sleet... rain and
possibly freezing rain tonight into early Monday morning
before changing to all rain.

* Impacts... snow and ice will make driving conditions hazardous.

Precautionary/preparedness actions...

A Winter Weather Advisory means that periods of snow... sleet...
and/or freezing rain are expected or occurring... but
accumulations are expected to be light. Driving and walking may
be difficult on untreated roadways and sidewalks. Be prepared for
snow and ice covered roads and limited visibilities. If you must
travel... slow down and allow extra time to reach your
destination.